Time;durP1;ratioP1;P1;durP2;ratioP2;P2;SDS_P1;SDS_P2;PMS_P1;PMS_P2;Temp;Humidity;BMP_temperature;BMP_pressure;BME280_temperature;BME280_humidity;BME280_pressure;Samples;Min_cycle;Max_cycle;Signal;HPM_P1;HPM_P2
2022/01/19 00:01:05;;;;;;;139.20;57.40;;;;;;;-2.96;nan;102403.75;5033566;28;20067;-69
2022/01/19 00:03:31;;;;;;;140.38;55.60;;;;;;;-2.93;nan;102408.72;5036824;28;20033;-69
2022/01/19 00:05:57;;;;;;;127.22;53.60;;;;;;;-2.91;nan;102403.50;5034569;28;20051;-69
2022/01/19 00:08:22;;;;;;;131.63;52.30;;;;;;;-3.19;nan;102350.09;5033049;28;20183;-68
2022/01/19 00:10:50;;;;;;;117.63;49.58;;;;;;;-3.06;nan;102389.75;5034420;28;20045;-69
2022/01/19 00:13:16;;;;;;;114.05;44.90;;;;;;;-3.15;nan;102396.22;5033108;28;20124;-68
2022/01/19 00:15:42;;;;;;;109.53;45.22;;;;;;;-3.27;nan;102387.44;5032670;28;20089;-70
2022/01/19 00:18:07;;;;;;;109.55;45.63;;;;;;;-3.25;nan;102393.34;5034591;28;20053;-69
2022/01/19 00:20:34;;;;;;;112.60;47.00;;;;;;;-3.22;nan;102400.88;5034126;28;20029;-69
2022/01/19 00:23:02;;;;;;;110.22;45.20;;;;;;;-3.21;nan;102401.72;5032925;28;21867;-70
2022/01/19 00:25:28;;;;;;;105.60;44.42;;;;;;;-3.19;nan;102407.63;5014907;28;20390;-68
2022/01/19 00:27:54;;;;;;;102.03;43.22;;;;;;;-3.26;nan;102383.13;5015638;28;20040;-69
2022/01/19 00:30:19;;;;;;;115.68;45.75;;;;;;;-3.22;nan;102387.19;5033867;28;20037;-69
2022/01/19 00:32:45;;;;;;;116.00;48.20;;;;;;;-3.27;nan;102384.88;5032806;28;20418;-70
2022/01/19 00:35:12;;;;;;;124.78;49.33;;;;;;;-3.19;nan;102401.63;5032941;28;20091;-69
2022/01/19 00:37:39;;;;;;;130.85;50.10;;;;;;;-3.22;nan;102402.66;5032960;28;20025;-71
2022/01/19 00:40:07;;;;;;;121.75;50.22;;;;;;;-3.23;nan;102396.66;5033582;28;20041;-69
2022/01/19 00:42:33;;;;;;;125.05;48.53;;;;;;;-3.29;nan;102385.88;5033113;28;20029;-70
2022/01/19 00:44:58;;;;;;;113.03;47.60;;;;;;;-3.27;nan;102395.16;5033575;28;20080;-70
2022/01/19 00:47:24;;;;;;;130.60;51.58;;;;;;;-3.34;nan;102393.84;5032375;28;20514;-70
2022/01/19 00:49:49;;;;;;;145.43;55.63;;;;;;;-3.38;nan;102391.53;5032442;28;20029;-70
2022/01/19 00:52:15;;;;;;;142.77;56.55;;;;;;;-3.47;nan;102387.69;5014120;28;20522;-69
2022/01/19 00:54:41;;;;;;;146.98;60.13;;;;;;;-3.47;nan;102390.28;5031944;28;20041;-71
2022/01/19 00:57:08;;;;;;;142.70;59.72;;;;;;;-3.52;nan;102394.84;5031739;28;20105;-70
2022/01/19 00:59:34;;;;;;;145.85;57.97;;;;;;;-3.59;nan;102385.78;5011216;28;20045;-69
2022/01/19 01:01:59;;;;;;;148.95;58.42;;;;;;;-3.57;nan;102399.44;5026178;28;20029;-70
2022/01/19 01:04:25;;;;;;;152.95;58.60;;;;;;;-3.73;nan;102389.16;5032846;28;20120;-70
2022/01/19 01:06:50;;;;;;;148.00;58.42;;;;;;;-3.76;nan;102394.44;5033089;28;20557;-70
2022/01/19 01:09:16;;;;;;;145.13;58.40;;;;;;;-3.91;nan;102363.47;5011520;28;20549;-69
2022/01/19 01:11:58;;;;;;;146.30;57.97;;;;;;;-3.93;nan;102372.16;5017008;28;20033;-70
2022/01/19 01:17:13;;;;;;;146.23;57.13;;;;;;;-3.89;nan;102407.13;5030288;28;20112;-69
2022/01/19 01:19:39;;;;;;;146.13;60.08;;;;;;;-4.00;nan;102392.25;5028127;28;20040;-70
2022/01/19 01:22:05;;;;;;;153.57;61.20;;;;;;;-4.03;nan;102373.56;5031516;28;20049;-68
2022/01/19 01:24:30;;;;;;;147.25;59.20;;;;;;;-4.12;nan;102369.72;5031521;28;20029;-70
2022/01/19 01:26:55;;;;;;;141.52;57.30;;;;;;;-4.12;nan;102382.59;5031684;28;20029;-71
2022/01/19 01:29:22;;;;;;;150.18;58.50;;;;;;;-4.21;nan;102370.22;5032196;28;20037;-70
2022/01/19 01:31:47;;;;;;;147.77;58.50;;;;;;;-4.17;nan;102364.81;5014879;28;20075;-67
2022/01/19 01:34:13;;;;;;;143.40;58.35;;;;;;;-4.18;nan;102375.22;5031875;28;20033;-70
2022/01/19 01:36:39;;;;;;;155.70;57.63;;;;;;;-4.22;nan;102361.66;5032601;28;20037;-70
2022/01/19 01:39:04;;;;;;;154.52;57.05;;;;;;;-4.21;nan;102377.94;5032554;28;20034;-69
2022/01/19 01:41:30;;;;;;;150.38;57.67;;;;;;;-4.19;nan;102384.69;5036474;28;20029;-70
2022/01/19 01:43:55;;;;;;;145.35;55.78;;;;;;;-4.21;nan;102377.94;5032649;28;20124;-71
2022/01/19 01:46:33;;;;;;;138.93;55.53;;;;;;;-4.23;nan;102378.03;5032383;28;20033;-70
2022/01/19 01:48:59;;;;;;;153.20;58.22;;;;;;;-4.44;nan;102333.69;5014536;28;20136;-70
2022/01/19 01:54:08;;;;;;;135.02;56.20;;;;;;;-4.26;nan;102375.63;5031686;28;20045;-69
2022/01/19 01:56:33;;;;;;;154.82;55.50;;;;;;;-4.26;nan;102367.91;5032282;28;20030;-69
2022/01/19 01:58:59;;;;;;;153.52;57.45;;;;;;;-4.27;nan;102369.63;5014427;28;20044;-69
2022/01/19 02:01:24;;;;;;;148.55;59.92;;;;;;;-4.31;nan;102362.16;5032353;28;20030;-69
2022/01/19 02:03:49;;;;;;;139.73;55.40;;;;;;;-4.29;nan;102368.88;5032075;28;20039;-70
2022/01/19 02:09:12;;;;;;;145.30;54.25;;;;;;;-4.36;nan;102346.94;5027347;28;20562;-69
2022/01/19 02:22:39;;;;;;;104.03;40.20;;;;;;;-4.58;nan;102352.38;5023787;28;20047;-70
2022/01/19 02:25:05;;;;;;;100.45;39.25;;;;;;;-4.61;nan;102347.41;5020649;28;20037;-68
2022/01/19 02:30:45;;;;;;;101.15;40.05;;;;;;;-4.68;nan;102335.75;5030097;28;20038;-70
2022/01/19 02:41:11;;;;;;;93.55;37.22;;;;;;;-4.58;nan;102315.56;5037791;28;20033;-72
2022/01/19 02:43:37;;;;;;;88.47;35.40;;;;;;;-4.56;nan;102336.88;5037155;28;20128;-72
2022/01/19 02:51:29;;;;;;;123.38;46.67;;;;;;;-4.60;nan;102350.78;5037899;28;20029;-72
2022/01/19 02:53:55;;;;;;;111.00;45.25;;;;;;;-4.69;nan;102354.69;5022992;28;20049;-72
2022/01/19 02:56:29;;;;;;;118.15;47.10;;;;;;;-4.67;nan;102357.16;5038270;28;20033;-73
2022/01/19 02:59:10;;;;;;;120.13;43.88;;;;;;;-5.00;nan;102309.13;5037196;28;20030;-71
2022/01/19 03:09:42;;;;;;;113.80;45.20;;;;;;;-4.81;nan;102353.56;5042655;28;20037;-72
2022/01/19 03:12:09;;;;;;;112.63;45.25;;;;;;;-4.94;nan;102337.06;5025113;28;20034;-71
2022/01/19 03:14:35;;;;;;;113.43;43.75;;;;;;;-5.05;nan;102337.63;5042805;28;20096;-70
2022/01/19 03:17:00;;;;;;;112.80;42.65;;;;;;;-5.00;nan;102338.22;5044024;28;20487;-71
2022/01/19 03:19:28;;;;;;;110.93;43.78;;;;;;;-5.15;nan;102323.53;5019321;28;20057;-71
2022/01/19 03:21:53;;;;;;;107.53;40.42;;;;;;;-5.09;nan;102330.94;5034298;28;20041;-72
2022/01/19 03:24:19;;;;;;;101.63;40.85;;;;;;;-5.13;nan;102329.44;5033969;28;20025;-72
2022/01/19 03:26:44;;;;;;;103.45;40.22;;;;;;;-5.08;nan;102352.31;5034503;28;20034;-72
2022/01/19 03:29:10;;;;;;;101.30;38.55;;;;;;;-5.35;nan;102327.91;5034721;28;20120;-72
2022/01/19 03:31:35;;;;;;;91.18;37.28;;;;;;;-5.29;nan;102342.22;5034550;28;20079;-71
2022/01/19 03:34:01;;;;;;;91.80;38.08;;;;;;;-5.32;nan;102328.66;5015817;28;20025;-71
2022/01/19 03:36:27;;;;;;;89.53;37.30;;;;;;;-5.38;nan;102309.28;5034952;28;20441;-73
2022/01/19 03:38:54;;;;;;;90.03;37.15;;;;;;;-5.26;nan;102325.81;5015453;28;20034;-71
2022/01/19 03:41:19;;;;;;;94.07;37.47;;;;;;;-5.31;nan;102314.94;5033894;28;20117;-73
2022/01/19 03:43:45;;;;;;;100.82;38.50;;;;;;;-5.20;nan;102334.03;5034668;28;20216;-73
2022/01/19 03:46:14;;;;;;;96.47;36.67;;;;;;;-5.24;nan;102332.53;5016536;28;20069;-72
2022/01/19 03:51:16;;;;;;;97.90;36.67;;;;;;;-5.16;nan;102350.13;5033574;28;20475;-72
2022/01/19 03:53:41;;;;;;;90.30;36.75;;;;;;;-5.15;nan;102352.66;5032751;28;20052;-73
2022/01/19 03:56:07;;;;;;;100.05;37.55;;;;;;;-5.15;nan;102347.50;5034435;28;20064;-73
2022/01/19 03:58:33;;;;;;;90.88;35.08;;;;;;;-5.12;nan;102343.94;5034333;28;20052;-72
2022/01/19 04:00:59;;;;;;;92.70;37.60;;;;;;;-5.05;nan;102347.88;5034333;28;20037;-72
2022/01/19 04:04:01;;;;;;;101.90;38.85;;;;;;;-5.01;nan;102354.50;5011711;28;20083;-71
2022/01/19 04:06:28;;;;;;;94.28;37.58;;;;;;;-5.05;nan;102336.75;5033439;28;20037;-73
2022/01/19 04:08:53;;;;;;;91.50;36.33;;;;;;;-5.00;nan;102343.34;5014747;28;20033;-71
2022/01/19 04:11:21;;;;;;;91.05;37.10;;;;;;;-5.01;nan;102336.53;5032746;28;20056;-69
2022/01/19 04:16:21;;;;;;;90.53;36.22;;;;;;;-4.99;nan;102342.44;5038806;28;20029;-70
2022/01/19 04:18:47;;;;;;;89.38;35.90;;;;;;;-5.05;nan;102326.47;5035879;28;20433;-69
2022/01/19 04:21:14;;;;;;;88.20;36.08;;;;;;;-5.01;nan;102339.09;5014928;28;20040;-69
2022/01/19 04:23:39;;;;;;;91.15;37.38;;;;;;;-5.04;nan;102348.72;5032759;28;20056;-70
2022/01/19 04:26:05;;;;;;;96.38;36.83;;;;;;;-4.98;nan;102349.25;5033653;28;20472;-70
2022/01/19 04:28:31;;;;;;;103.13;40.33;;;;;;;-5.11;nan;102343.03;5033062;28;20036;-69
2022/01/19 04:30:56;;;;;;;108.60;39.25;;;;;;;-5.08;nan;102337.75;5032594;28;20029;-69
2022/01/19 04:33:25;;;;;;;100.43;38.60;;;;;;;-5.19;nan;102316.91;5031865;28;20029;-71
2022/01/19 04:35:54;;;;;;;100.72;39.15;;;;;;;-5.06;nan;102335.09;5012346;28;20034;-72
2022/01/19 04:54:38;;;;;;;93.82;35.85;;;;;;;-5.06;nan;102317.94;5030985;28;20515;-70
2022/01/19 05:04:56;;;;;;;89.88;34.88;;;;;;;-5.16;nan;102298.78;5031213;28;20175;-73
2022/01/19 05:15:07;;;;;;;84.20;34.25;;;;;;;-5.21;nan;102321.28;5028733;28;20488;-71
2022/01/19 05:17:33;;;;;;;93.10;36.20;;;;;;;-5.29;nan;102318.25;5030938;28;20041;-69
2022/01/19 05:19:59;;;;;;;96.95;35.75;;;;;;;-5.28;nan;102315.59;4997231;28;20398;-70
2022/01/19 05:22:24;;;;;;;95.00;33.90;;;;;;;-5.31;nan;102304.66;5032893;28;20034;-71
2022/01/19 05:24:51;;;;;;;95.10;35.13;;;;;;;-5.30;nan;102299.44;5032012;28;20063;-70
2022/01/19 05:27:19;;;;;;;87.93;34.92;;;;;;;-5.26;nan;102305.28;5031877;28;20106;-70
2022/01/19 05:29:44;;;;;;;91.05;33.58;;;;;;;-5.23;nan;102318.78;4995479;28;20738;-69
2022/01/19 05:32:11;;;;;;;90.03;34.20;;;;;;;-5.23;nan;102329.06;5017841;28;20120;-73
2022/01/19 05:34:37;;;;;;;84.50;33.33;;;;;;;-5.38;nan;102297.25;5032469;28;20030;-71
2022/01/19 05:37:03;;;;;;;89.68;35.15;;;;;;;-5.34;nan;102321.03;5014778;28;20045;-71
2022/01/19 05:39:28;;;;;;;95.22;36.75;;;;;;;-5.41;nan;102317.94;5032428;28;20029;-71
2022/01/19 05:41:53;;;;;;;97.43;36.95;;;;;;;-5.44;nan;102315.50;5014110;28;20164;-72
2022/01/19 05:44:19;;;;;;;84.63;34.95;;;;;;;-5.49;nan;102302.06;5032373;28;20044;-71
2022/01/19 05:46:44;;;;;;;78.10;32.13;;;;;;;-5.47;nan;102313.09;5010431;28;20042;-69
2022/01/19 05:49:10;;;;;;;87.65;32.72;;;;;;;-5.43;nan;102318.94;5024761;28;20045;-71
2022/01/19 05:51:35;;;;;;;81.72;33.00;;;;;;;-5.43;nan;102327.44;5013772;28;20037;-70
2022/01/19 05:54:01;;;;;;;86.90;32.83;;;;;;;-5.44;nan;102333.47;5031444;28;20099;-71
2022/01/19 05:56:26;;;;;;;85.88;30.25;;;;;;;-5.46;nan;102327.59;5012715;28;20087;-70
2022/01/19 05:58:52;;;;;;;80.38;31.38;;;;;;;-5.46;nan;102326.75;5031593;28;20531;-72
2022/01/19 06:01:17;;;;;;;81.32;30.85;;;;;;;-5.51;nan;102314.13;5011043;28;20120;-70
2022/01/19 06:03:42;;;;;;;76.18;29.15;;;;;;;-5.50;nan;102323.53;5033518;28;20029;-68
2022/01/19 06:06:09;;;;;;;80.22;32.67;;;;;;;-5.41;nan;102338.50;5031433;28;20399;-70
2022/01/19 06:08:43;;;;;;;81.60;29.73;;;;;;;-5.45;nan;102325.88;5031271;28;20072;-69
2022/01/19 06:11:09;;;;;;;78.82;31.80;;;;;;;-5.36;nan;102348.53;5031861;28;20491;-69
2022/01/19 06:13:35;;;;;;;76.30;33.63;;;;;;;-5.41;nan;102335.91;5012636;28;20041;-68
2022/01/19 06:16:01;;;;;;;83.13;33.95;;;;;;;-5.27;nan;102344.69;5012737;28;20042;-69
2022/01/19 06:18:27;;;;;;;87.10;33.17;;;;;;;-5.33;nan;102343.25;5013969;28;20075;-69
2022/01/19 06:20:52;;;;;;;94.43;34.05;;;;;;;-5.28;nan;102353.31;5011192;28;20030;-70
2022/01/19 06:23:18;;;;;;;81.88;33.95;;;;;;;-5.24;nan;102350.50;5028425;28;20103;-69
2022/01/19 06:25:43;;;;;;;84.57;34.50;;;;;;;-5.35;nan;102334.78;5031527;28;20029;-70
2022/01/19 06:28:09;;;;;;;87.97;33.53;;;;;;;-5.35;nan;102345.06;5032178;28;20414;-70
2022/01/19 06:30:35;;;;;;;82.85;32.88;;;;;;;-5.31;nan;102338.06;5012902;28;20030;-70
2022/01/19 06:33:00;;;;;;;81.47;33.05;;;;;;;-5.20;nan;102341.72;5031819;28;20044;-70
2022/01/19 06:35:26;;;;;;;78.65;32.25;;;;;;;-5.11;nan;102358.44;4993797;28;20120;-69
2022/01/19 06:37:51;;;;;;;82.78;33.92;;;;;;;-5.08;nan;102357.47;5012196;28;20119;-70
2022/01/19 06:40:19;;;;;;;91.07;36.55;;;;;;;-5.07;nan;102362.53;5028573;28;20040;-70
2022/01/19 06:42:44;;;;;;;85.93;35.58;;;;;;;-5.30;nan;102316.59;5011314;28;20036;-67
2022/01/19 06:45:11;;;;;;;81.63;32.67;;;;;;;-5.15;nan;102341.50;5031313;28;20037;-70
2022/01/19 06:47:37;;;;;;;77.78;30.95;;;;;;;-5.06;nan;102345.38;5010484;28;20034;-69
2022/01/19 06:50:08;;;;;;;87.57;30.13;;;;;;;-5.08;nan;102347.19;5012003;28;20040;-68
2022/01/19 06:52:34;;;;;;;84.10;28.83;;;;;;;-4.98;nan;102366.38;5027505;28;20107;-70
2022/01/19 06:54:59;;;;;;;72.50;28.30;;;;;;;-5.06;nan;102348.78;5012500;28;20535;-69
2022/01/19 06:57:25;;;;;;;81.32;31.23;;;;;;;-4.97;nan;102365.50;5015840;28;20482;-70
2022/01/19 06:59:51;;;;;;;74.90;29.80;;;;;;;-4.91;nan;102357.47;5033781;28;20040;-68
2022/01/19 07:02:18;;;;;;;69.65;28.20;;;;;;;-4.88;nan;102361.63;5018193;28;20087;-69
2022/01/19 07:04:49;;;;;;;69.38;27.15;;;;;;;-4.98;nan;102338.13;5043854;28;20041;-70
2022/01/19 07:07:18;;;;;;;70.78;28.75;;;;;;;-4.77;nan;102365.31;5011513;28;20045;-70
2022/01/19 07:09:45;;;;;;;73.43;28.42;;;;;;;-4.75;nan;102352.41;5033977;28;20112;-68
2022/01/19 07:12:11;;;;;;;68.50;27.02;;;;;;;-4.76;nan;102341.28;5035164;28;20048;-73
2022/01/19 07:14:36;;;;;;;67.60;26.83;;;;;;;-4.60;nan;102367.03;5027671;28;20032;-70
2022/01/19 07:17:02;;;;;;;75.38;28.33;;;;;;;-4.69;nan;102349.53;5021542;28;20037;-70
2022/01/19 07:19:28;;;;;;;76.63;28.27;;;;;;;-4.61;nan;102356.84;5015312;28;20064;-70
2022/01/19 07:21:54;;;;;;;77.80;27.13;;;;;;;-4.62;nan;102350.03;5034691;28;20530;-70
2022/01/19 07:24:19;;;;;;;77.75;28.63;;;;;;;-4.49;nan;102351.91;5026183;28;20026;-71
2022/01/19 07:26:45;;;;;;;75.45;29.13;;;;;;;-4.54;nan;102330.75;5030104;28;20034;-74
2022/01/19 07:29:19;;;;;;;68.00;27.17;;;;;;;-4.38;nan;102353.09;5034466;28;20037;-70
2022/01/19 07:31:45;;;;;;;58.97;22.67;;;;;;;-4.31;nan;102355.28;5031999;28;20029;-68
2022/01/19 07:34:13;;;;;;;59.13;23.25;;;;;;;-4.32;nan;102358.75;5011062;28;20040;-70
2022/01/19 07:36:39;;;;;;;38.30;15.73;;;;;;;-4.30;nan;102362.06;5032863;28;20060;-68
2022/01/19 07:39:05;;;;;;;60.30;23.33;;;;;;;-4.34;nan;102354.59;5013680;28;20472;-70
2022/01/19 07:41:31;;;;;;;56.35;21.92;;;;;;;-4.31;nan;102357.00;5033356;28;20040;-70
2022/01/19 07:43:56;;;;;;;51.50;21.42;;;;;;;-4.24;nan;102367.81;5034402;28;20033;-70
2022/01/19 07:46:21;;;;;;;59.50;23.60;;;;;;;-4.37;nan;102350.44;5034080;28;20490;-71
2022/01/19 07:48:47;;;;;;;59.47;22.52;;;;;;;-4.27;nan;102356.75;5032663;28;20133;-70
2022/01/19 07:51:12;;;;;;;50.35;19.85;;;;;;;-4.27;nan;102358.50;5015089;28;20041;-69
2022/01/19 07:53:38;;;;;;;47.88;18.80;;;;;;;-4.23;nan;102359.19;5015457;28;20046;-69
2022/01/19 07:56:04;;;;;;;57.78;20.55;;;;;;;-4.31;nan;102345.00;5033089;28;20037;-71
2022/01/19 07:58:30;;;;;;;53.97;20.02;;;;;;;-4.15;nan;102355.28;5034478;28;20156;-70
2022/01/19 08:00:56;;;;;;;57.72;20.92;;;;;;;-4.21;nan;102355.63;5033869;28;20518;-70
2022/01/19 08:03:21;;;;;;;54.63;18.98;;;;;;;-4.22;nan;102351.38;5013302;28;20026;-71
2022/01/19 08:05:47;;;;;;;46.72;19.40;;;;;;;-4.19;nan;102345.25;5012485;28;20073;-69
2022/01/19 08:08:12;;;;;;;52.28;20.02;;;;;;;-4.13;nan;102347.50;5033221;28;20491;-72
2022/01/19 08:10:41;;;;;;;52.35;19.25;;;;;;;-4.12;nan;102344.88;5016184;28;20356;-72
2022/01/19 08:13:06;;;;;;;51.75;19.83;;;;;;;-3.99;nan;102352.75;5032973;28;20387;-73
2022/01/19 08:15:32;;;;;;;51.45;20.77;;;;;;;-4.02;nan;102341.78;5033394;28;20033;-73
2022/01/19 08:17:57;;;;;;;52.83;20.33;;;;;;;-3.91;nan;102342.88;5034038;28;20534;-74
2022/01/19 08:20:23;;;;;;;66.15;21.40;;;;;;;-3.87;nan;102340.97;5016098;28;20038;-73
2022/01/19 08:22:48;;;;;;;55.47;21.17;;;;;;;-3.71;nan;102346.09;5016314;28;20029;-73
2022/01/19 08:25:14;;;;;;;77.47;27.35;;;;;;;-3.62;nan;102345.59;5016457;28;20034;-73
2022/01/19 08:27:40;;;;;;;65.20;24.60;;;;;;;-3.61;nan;102336.16;5033889;28;20410;-80
2022/01/19 08:30:07;;;;;;;63.05;21.88;;;;;;;-3.58;nan;102334.22;5033880;28;20037;-78
2022/01/19 08:32:35;;;;;;;53.42;21.25;;;;;;;-3.56;nan;102340.13;5032526;28;20042;-78
2022/01/19 08:35:02;;;;;;;58.10;22.60;;;;;;;-3.42;nan;102354.81;5032494;28;20501;-78
2022/01/19 08:37:27;;;;;;;69.03;23.08;;;;;;;-3.53;nan;102324.50;5014122;28;20044;-72
2022/01/19 08:39:53;;;;;;;54.55;22.70;;;;;;;-3.36;nan;102341.59;5014104;28;20022;-72
2022/01/19 08:42:21;;;;;;;66.43;23.75;;;;;;;-3.26;nan;102337.56;5033169;28;20026;-71
2022/01/19 08:44:47;;;;;;;62.85;22.85;;;;;;;-3.12;nan;102352.25;5029955;28;20026;-73
2022/01/19 08:47:12;;;;;;;65.43;23.65;;;;;;;-3.05;nan;102345.81;5033362;28;20044;-71
2022/01/19 08:49:41;;;;;;;57.60;21.08;;;;;;;-3.03;nan;102341.41;5015444;28;20036;-71
2022/01/19 08:52:07;;;;;;;57.20;21.60;;;;;;;-3.00;nan;102333.50;5015485;28;20044;-71
2022/01/19 08:54:36;;;;;;;52.92;20.50;;;;;;;-2.85;nan;102346.41;5033585;28;20045;-72
2022/01/19 08:57:04;;;;;;;62.35;22.65;;;;;;;-2.80;nan;102336.69;5016742;28;20445;-71
2022/01/19 08:59:33;;;;;;;54.90;21.35;;;;;;;-2.69;nan;102346.38;5016081;28;20034;-72
2022/01/19 09:02:06;;;;;;;57.25;22.40;;;;;;;-2.61;nan;102349.31;5016536;28;20490;-73
2022/01/19 09:04:32;;;;;;;55.78;21.27;;;;;;;-2.60;nan;102338.09;5047150;28;20034;-73
2022/01/19 09:06:59;;;;;;;56.97;22.10;;;;;;;-2.52;nan;102343.59;5037190;28;20033;-78
2022/01/19 09:09:25;;;;;;;56.63;23.10;;;;;;;-2.49;nan;102317.66;5032919;28;20064;-78
2022/01/19 09:11:50;;;;;;;58.08;22.75;;;;;;;-2.29;nan;102346.56;5033054;28;20041;-78
2022/01/19 09:14:16;;;;;;;57.15;22.33;;;;;;;-2.50;nan;102318.56;5014328;28;20499;-78
2022/01/19 09:16:43;;;;;;;50.03;20.27;;;;;;;-2.40;nan;102329.97;5038432;28;20040;-78
2022/01/19 09:19:10;;;;;;;54.55;21.27;;;;;;;-2.43;nan;102330.16;5032105;28;20059;-78
2022/01/19 09:21:36;;;;;;;62.40;21.33;;;;;;;-2.42;nan;102323.25;5032383;28;20076;-78
2022/01/19 09:24:02;;;;;;;55.15;21.90;;;;;;;-2.29;nan;102328.50;5009718;28;20486;-78
2022/01/19 09:26:29;;;;;;;69.03;23.27;;;;;;;-2.39;nan;102303.25;5009516;28;20033;-78
2022/01/19 09:28:55;;;;;;;63.95;24.52;;;;;;;-2.28;nan;102315.50;5029630;28;20120;-78
2022/01/19 09:31:20;;;;;;;62.22;22.95;;;;;;;-2.17;nan;102322.59;5014778;28;20120;-79
2022/01/19 09:33:54;;;;;;;66.00;23.88;;;;;;;-2.21;nan;102314.19;5032160;28;20099;-72
2022/01/19 09:36:34;;;;;;;61.03;24.73;;;;;;;-2.21;nan;102318.53;5033183;28;20061;-72
2022/01/19 09:39:00;;;;;;;53.03;22.27;;;;;;;-2.19;nan;102316.69;5011588;28;20044;-71
2022/01/19 09:41:26;;;;;;;62.80;23.00;;;;;;;-2.14;nan;102310.31;5027166;28;20147;-72
2022/01/19 09:43:52;;;;;;;57.17;23.10;;;;;;;-2.10;nan;102321.28;5032209;28;20047;-72
2022/01/19 09:46:17;;;;;;;63.88;22.02;;;;;;;-2.09;nan;102329.88;5032444;28;20031;-71
2022/01/19 09:48:43;;;;;;;62.85;24.15;;;;;;;-2.17;nan;102313.09;5027403;28;20033;-73
2022/01/19 09:51:09;;;;;;;67.63;25.42;;;;;;;-2.08;nan;102323.75;5027835;28;20472;-72
2022/01/19 09:53:35;;;;;;;62.75;22.85;;;;;;;-2.28;nan;102294.84;5030124;28;20523;-73
2022/01/19 09:56:02;;;;;;;65.25;25.00;;;;;;;-2.23;nan;102292.81;5014501;28;20450;-81
2022/01/19 09:58:30;;;;;;;63.45;22.60;;;;;;;-2.18;nan;102295.13;5002886;28;20025;-71
2022/01/19 10:00:56;;;;;;;54.42;22.92;;;;;;;-2.20;nan;102295.22;5028653;28;20121;-71
2022/01/19 10:03:27;;;;;;;67.13;23.48;;;;;;;-2.15;nan;102300.94;5014952;28;20454;-70
2022/01/19 10:06:14;;;;;;;57.70;22.60;;;;;;;-2.47;nan;102277.09;5021218;28;20034;-68
2022/01/19 10:08:42;;;;;;;61.85;22.42;;;;;;;-2.44;nan;102276.91;5011433;28;20542;-71
2022/01/19 10:11:21;;;;;;;67.57;24.20;;;;;;;-2.40;nan;102290.44;5012692;28;20053;-72
2022/01/19 10:17:00;;;;;;;64.65;24.05;;;;;;;-2.34;nan;102277.19;5033953;28;20053;-71
2022/01/19 10:19:26;;;;;;;65.35;23.15;;;;;;;-2.33;nan;102275.44;5029205;28;20044;-68
2022/01/19 10:22:00;;;;;;;64.57;21.50;;;;;;;-2.39;nan;102258.59;5025605;28;20038;-69
2022/01/19 10:24:53;;;;;;;58.15;21.80;;;;;;;-2.30;nan;102260.56;5030284;28;20037;-69
2022/01/19 10:27:32;;;;;;;62.35;23.27;;;;;;;-2.26;nan;102264.63;5000763;28;20057;-67
2022/01/19 10:30:04;;;;;;;68.72;23.20;;;;;;;-2.27;nan;102251.84;5015000;28;20034;-70
2022/01/19 10:32:35;;;;;;;351.80;93.70;;;;;;;-2.25;nan;102255.97;5034459;28;20037;-69
2022/01/19 10:35:33;;;;;;;78.85;26.92;;;;;;;-2.12;nan;102252.63;5035368;28;20025;-69
2022/01/19 10:38:19;;;;;;;78.47;27.40;;;;;;;-2.33;nan;102198.03;5035129;28;20045;-73
2022/01/19 10:41:05;;;;;;;58.50;24.02;;;;;;;-2.03;nan;102242.56;5021832;28;20428;-73
2022/01/19 10:43:42;;;;;;;68.25;24.73;;;;;;;-2.00;nan;102252.69;5015347;28;20033;-73
2022/01/19 10:46:28;;;;;;;57.28;23.00;;;;;;;-2.01;nan;102234.69;5019132;28;20045;-74
2022/01/19 10:49:08;;;;;;;57.35;21.48;;;;;;;-2.03;nan;102227.06;5019153;28;20057;-70
2022/01/19 10:51:46;;;;;;;62.67;24.42;;;;;;;-1.96;nan;102236.06;5016653;28;20029;-70
2022/01/19 10:54:22;;;;;;;64.30;25.65;;;;;;;-1.99;nan;102222.53;5034049;28;20376;-70
2022/01/19 10:56:57;;;;;;;57.60;22.10;;;;;;;-2.04;nan;102202.16;5011368;28;20037;-71
2022/01/19 10:59:29;;;;;;;57.53;21.50;;;;;;;-2.01;nan;102222.63;5033990;28;20032;-72
2022/01/19 11:01:57;;;;;;;65.57;21.52;;;;;;;-2.10;nan;102207.72;5033916;28;20504;-71
2022/01/19 11:04:24;;;;;;;61.92;22.10;;;;;;;-2.11;nan;102198.31;5038149;28;20040;-71
2022/01/19 11:06:53;;;;;;;56.30;20.75;;;;;;;-2.36;nan;102157.78;5033687;28;20044;-70
2022/01/19 11:09:23;;;;;;;56.05;21.23;;;;;;;-2.19;nan;102183.31;5034897;28;20452;-71
2022/01/19 11:11:49;;;;;;;53.47;21.50;;;;;;;-2.23;nan;102179.28;5035068;28;20026;-70
2022/01/19 11:14:16;;;;;;;54.55;21.83;;;;;;;-2.21;nan;102163.69;5034885;28;20055;-70
2022/01/19 11:16:42;;;;;;;57.80;22.58;;;;;;;-2.28;nan;102152.94;5031083;28;20037;-70
2022/01/19 11:19:11;;;;;;;59.03;21.95;;;;;;;-2.28;nan;102158.09;5034700;28;20029;-70
2022/01/19 11:22:16;;;;;;;56.00;22.55;;;;;;;-2.24;nan;102169.06;5016455;28;20163;-70
2022/01/19 11:24:45;;;;;;;62.33;21.15;;;;;;;-2.24;nan;102169.06;4964529;28;20039;-70
2022/01/19 11:27:11;;;;;;;58.25;23.10;;;;;;;-2.29;nan;102155.63;4971786;28;20043;-70
2022/01/19 11:29:38;;;;;;;59.78;22.80;;;;;;;-2.28;nan;102157.28;4972504;28;20559;-70
2022/01/19 11:32:18;;;;;;;67.63;24.92;;;;;;;-2.28;nan;102152.13;4968745;28;20039;-70
2022/01/19 11:34:50;;;;;;;64.75;24.45;;;;;;;-2.29;nan;102147.91;4973115;28;20130;-70
2022/01/19 11:37:43;;;;;;;59.50;23.98;;;;;;;-2.43;nan;102113.47;4970042;28;20046;-68
2022/01/19 11:40:18;;;;;;;65.85;23.52;;;;;;;-2.23;nan;102134.59;4967817;28;20133;-69
2022/01/19 11:42:44;;;;;;;69.82;25.02;;;;;;;-2.16;nan;102146.16;4971710;28;20043;-69
2022/01/19 11:45:48;;;;;;;66.05;24.33;;;;;;;-2.16;nan;102139.25;4971891;28;20653;-69
2022/01/19 11:48:15;;;;;;;64.00;23.60;;;;;;;-2.31;nan;102109.28;4961596;28;20097;-69
2022/01/19 11:50:41;;;;;;;61.60;24.67;;;;;;;-2.62;nan;102051.09;4969092;28;20149;-69
2022/01/19 11:53:11;;;;;;;62.28;24.35;;;;;;;-2.16;nan;102117.78;4954927;28;20038;-69
2022/01/19 11:55:39;;;;;;;67.72;25.38;;;;;;;-2.17;nan;102104.06;4970569;28;20042;-70
2022/01/19 11:58:13;;;;;;;64.53;25.45;;;;;;;-2.07;nan;102117.19;4988195;28;20037;-69
2022/01/19 12:00:39;;;;;;;68.18;25.55;;;;;;;-2.12;nan;102101.19;5019639;28;20030;-69
2022/01/19 12:03:32;;;;;;;66.78;25.30;;;;;;;-2.08;nan;102097.47;5040257;28;20040;-69
2022/01/19 12:05:58;;;;;;;64.95;23.70;;;;;;;-1.96;nan;102117.31;5030772;28;20045;-70
2022/01/19 12:08:30;;;;;;;67.43;26.83;;;;;;;-1.94;nan;102112.88;5013999;28;20033;-69
2022/01/19 12:11:16;;;;;;;69.75;26.63;;;;;;;-1.86;nan;102112.38;5014696;28;20040;-69
2022/01/19 12:18:53;;;;;;;69.77;27.10;;;;;;;-1.77;nan;102085.94;5037453;28;20033;-70
2022/01/19 12:21:31;;;;;;;72.63;27.38;;;;;;;-1.62;nan;102088.44;5015808;28;20094;-70
2022/01/19 12:24:12;;;;;;;71.22;26.58;;;;;;;-1.57;nan;102076.03;5030534;28;20502;-70
2022/01/19 12:26:48;;;;;;;72.72;27.45;;;;;;;-1.47;nan;102081.41;5030094;28;20037;-69
2022/01/19 12:29:34;;;;;;;76.55;25.83;;;;;;;-1.42;nan;102069.81;5031736;28;20037;-70
2022/01/19 12:32:25;;;;;;;66.88;26.52;;;;;;;-1.36;nan;102073.75;5009443;28;20399;-70
2022/01/19 12:35:07;;;;;;;75.53;27.25;;;;;;;-1.29;nan;102064.63;5031283;28;20498;-70
2022/01/19 12:37:35;;;;;;;74.80;27.67;;;;;;;-1.19;nan;102057.06;5031437;28;20433;-70
2022/01/19 12:40:04;;;;;;;75.68;29.23;;;;;;;-1.12;nan;102053.94;5032534;28;20094;-70
2022/01/19 12:42:42;;;;;;;68.68;26.67;;;;;;;-1.12;nan;102053.13;5033295;28;20095;-70
2022/01/19 12:45:22;;;;;;;74.35;28.73;;;;;;;-0.99;nan;102055.66;5033946;28;20029;-70
2022/01/19 12:47:50;;;;;;;79.07;28.38;;;;;;;-0.92;nan;102052.53;5031117;28;20048;-70
2022/01/19 12:50:15;;;;;;;78.22;29.02;;;;;;;-0.85;nan;102058.09;5029589;28;20064;-70
2022/01/19 12:52:43;;;;;;;74.40;29.23;;;;;;;-0.79;nan;102047.31;5013989;28;20115;-70
2022/01/19 12:55:11;;;;;;;70.72;27.25;;;;;;;-0.81;nan;102036.25;5031630;28;20446;-70
2022/01/19 12:57:36;;;;;;;73.75;26.92;;;;;;;-0.70;nan;102038.88;5032340;28;20475;-70
2022/01/19 13:00:07;;;;;;;76.50;28.65;;;;;;;-0.70;nan;102022.53;5032927;28;20033;-70